Time;durP1;ratioP1;P1;durP2;ratioP2;P2;SDS_P1;SDS_P2;PMS_P1;PMS_P2;Temp;Humidity;BMP_temperature;BMP_pressure;BME280_temperature;BME280_humidity;BME280_pressure;Samples;Min_cycle;Max_cycle;Signal;HPM_P1;HPM_P2
2022/11/01 00:01:37;;;;;;;20.47;11.03;;;13.70;90.60;;;13.86;59.44;95665.41;5014189;28;20506;-56
2022/11/01 00:04:05;;;;;;;20.80;11.27;;;13.60;90.80;;;13.84;59.38;95667.38;5004091;28;20504;-57
2022/11/01 00:06:32;;;;;;;16.27;10.70;;;13.60;90.80;;;13.81;59.10;95665.84;5013346;28;20520;-54
2022/11/01 00:09:00;;;;;;;15.83;10.63;;;13.60;90.80;;;13.78;59.43;95664.28;5007028;28;20509;-54
2022/11/01 00:11:27;;;;;;;18.37;11.07;;;13.50;90.70;;;13.77;59.63;95669.72;5008013;28;20475;-56
2022/11/01 00:13:54;;;;;;;23.63;11.07;;;13.50;90.90;;;13.73;59.82;95668.34;5010280;28;20552;-54
2022/11/01 00:16:23;;;;;;;24.17;10.83;;;13.50;91.30;;;13.72;59.46;95658.75;5005618;28;20938;-55
2022/11/01 00:18:50;;;;;;;16.23;10.80;;;13.50;91.20;;;13.70;59.70;95656.22;5010203;28;20477;-57
2022/11/01 00:21:18;;;;;;;16.37;9.87;;;13.40;91.40;;;13.69;59.86;95659.84;5009069;28;21013;-56
2022/11/01 00:23:45;;;;;;;27.83;10.50;;;13.40;91.40;;;13.68;59.89;95659.97;5009155;28;20477;-56
2022/11/01 00:26:17;;;;;;;15.17;9.83;;;13.40;91.30;;;13.66;59.68;95665.41;5008632;28;20497;-57
2022/11/01 00:28:44;;;;;;;23.77;9.17;;;13.40;91.20;;;13.63;59.74;95663.91;5008741;28;20810;-54
2022/11/01 00:31:12;;;;;;;15.13;9.53;;;13.40;91.40;;;13.62;59.70;95662.22;5012313;28;20473;-55
2022/11/01 00:33:40;;;;;;;14.53;9.33;;;13.40;91.50;;;13.60;59.47;95653.59;5011979;28;20464;-56
2022/11/01 00:36:08;;;;;;;21.50;8.93;;;13.40;91.40;;;13.60;59.71;95653.59;5007250;28;20477;-55
2022/11/01 00:38:36;;;;;;;15.27;9.50;;;13.40;91.60;;;13.58;59.70;95666.09;5011821;28;20472;-55
2022/11/01 00:41:03;;;;;;;15.57;9.00;;;13.30;91.50;;;13.58;59.81;95665.28;5007411;28;21029;-57
2022/11/01 00:43:30;;;;;;;15.40;8.30;;;13.30;91.50;;;13.55;59.42;95671.66;5012877;28;20631;-55
2022/11/01 00:45:58;;;;;;;13.60;8.30;;;13.30;91.40;;;13.53;59.43;95663.03;5010538;28;20844;-55
2022/11/01 00:48:25;;;;;;;20.23;8.43;;;13.30;91.70;;;13.52;59.63;95666.66;5007240;28;20538;-54
2022/11/01 00:50:54;;;;;;;14.23;9.27;;;13.30;91.60;;;13.50;59.75;95665.97;5007945;28;20488;-55
2022/11/01 00:53:21;;;;;;;17.07;8.93;;;13.30;91.60;;;13.49;59.36;95661.66;5009612;28;20489;-55
2022/11/01 00:55:48;;;;;;;11.73;7.83;;;13.20;91.40;;;13.48;59.64;95661.78;5011869;28;20488;-55
2022/11/01 00:58:16;;;;;;;13.93;9.60;;;13.20;91.60;;;13.45;59.81;95668.19;5008079;28;20472;-54
2022/11/01 01:00:43;;;;;;;14.07;8.60;;;13.20;91.70;;;13.42;59.48;95664.00;5006247;28;21068;-55
2022/11/01 01:03:11;;;;;;;11.57;7.50;;;13.20;91.60;;;13.40;59.53;95665.09;5011726;28;20481;-54
2022/11/01 01:05:38;;;;;;;20.40;8.03;;;13.10;91.60;;;13.37;59.70;95658.31;5010423;28;20508;-56
2022/11/01 01:08:06;;;;;;;15.73;9.27;;;13.10;91.60;;;13.35;59.85;95660.22;5008601;28;20473;-56
2022/11/01 01:10:34;;;;;;;15.43;9.40;;;13.10;91.80;;;13.34;59.71;95663.88;5010951;28;20457;-53
2022/11/01 01:13:01;;;;;;;14.07;9.07;;;13.10;91.90;;;13.31;59.69;95660.63;5007275;28;20859;-55
2022/11/01 01:15:28;;;;;;;16.23;8.90;;;13.10;91.90;;;13.28;59.88;95665.22;5009428;28;20458;-54
2022/11/01 01:17:56;;;;;;;11.70;8.47;;;13.00;91.80;;;13.25;60.08;95665.47;5009740;28;20511;-57
2022/11/01 01:20:23;;;;;;;18.07;9.00;;;13.00;92.10;;;13.24;60.02;95669.09;5008940;28;20546;-57
2022/11/01 01:22:50;;;;;;;13.47;8.23;;;13.00;92.10;;;13.20;60.02;95665.06;5014865;28;20482;-57
2022/11/01 01:25:19;;;;;;;21.53;8.47;;;13.00;92.30;;;13.17;60.04;95667.16;5010573;28;20993;-55
2022/11/01 01:27:47;;;;;;;18.10;8.97;;;12.90;91.90;;;13.12;59.95;95662.28;5011216;28;20501;-53
2022/11/01 01:30:14;;;;;;;24.03;8.70;;;12.90;92.00;;;13.09;60.15;95659.91;5007772;28;20828;-55
2022/11/01 01:32:42;;;;;;;22.17;8.57;;;12.80;92.20;;;13.05;60.09;95659.31;5016828;28;20588;-56
2022/11/01 01:35:09;;;;;;;15.03;7.70;;;12.80;92.10;;;13.03;60.61;95663.09;5013707;28;20469;-56
2022/11/01 01:37:36;;;;;;;15.23;7.67;;;12.80;92.60;;;12.98;60.21;95673.22;5012496;28;20481;-54
2022/11/01 01:40:05;;;;;;;19.70;8.27;;;12.80;92.40;;;12.97;60.07;95679.47;5010065;28;20492;-54
2022/11/01 01:42:35;;;;;;;17.80;8.73;;;12.70;92.40;;;12.96;60.25;95677.78;5012930;28;21031;-54
2022/11/01 01:45:28;;;;;;;16.20;9.10;;;12.70;92.50;;;12.94;60.34;95674.47;5013508;28;20472;-53
2022/11/01 01:47:57;;;;;;;17.67;9.17;;;12.70;92.60;;;12.91;59.90;95679.03;5009588;28;20917;-55
2022/11/01 01:50:28;;;;;;;23.33;8.33;;;12.70;92.40;;;12.89;60.24;95680.97;5009219;28;20464;-54
2022/11/01 01:52:59;;;;;;;16.97;9.57;;;12.70;92.50;;;12.87;60.93;95674.16;5012650;28;20477;-56
2022/11/01 01:55:28;;;;;;;17.63;8.47;;;12.70;92.90;;;12.83;60.78;95676.22;5008988;28;20571;-56
2022/11/01 01:57:57;;;;;;;11.60;9.10;;;12.70;92.80;;;12.81;60.56;95677.31;5011659;28;20473;-55
2022/11/01 02:00:25;;;;;;;21.13;9.50;;;12.60;92.70;;;12.80;60.93;95676.50;5005574;28;20563;-55
2022/11/01 02:02:52;;;;;;;20.57;10.27;;;12.60;93.10;;;12.78;61.02;95672.31;5014488;28;20527;-56
2022/11/01 02:05:26;;;;;;;14.23;8.50;;;12.60;93.10;;;12.76;61.13;95674.25;5013896;28;20457;-55
2022/11/01 02:07:53;;;;;;;19.50;7.93;;;12.60;93.10;;;12.74;60.80;95672.56;5010908;28;20524;-54
2022/11/01 02:10:21;;;;;;;14.73;7.63;;;12.60;93.10;;;12.73;61.14;95675.34;5011141;28;20538;-53
2022/11/01 02:12:48;;;;;;;24.00;9.50;;;12.50;93.20;;;12.71;61.60;95675.47;5007225;28;20477;-54
2022/11/01 02:15:17;;;;;;;10.63;8.53;;;12.50;93.60;;;12.69;60.99;95676.59;5013658;28;20457;-55
2022/11/01 02:17:55;;;;;;;16.63;9.03;;;12.50;93.40;;;12.67;61.56;95676.72;5010264;28;20955;-54
2022/11/01 02:20:52;;;;;;;9.90;7.57;;;12.50;93.50;;;12.66;61.66;95679.50;5008032;28;21055;-55
2022/11/01 02:23:56;;;;;;;15.33;8.77;;;12.50;93.60;;;12.63;62.01;95685.06;5009475;28;20532;-54
2022/11/01 02:27:01;;;;;;;20.20;9.00;;;12.40;93.90;;;12.61;61.83;95681.69;5010154;28;20957;-56
2022/11/01 02:30:05;;;;;;;18.33;8.80;;;12.40;93.70;;;12.57;61.67;95682.94;5007444;28;20488;-55
2022/11/01 02:33:16;;;;;;;15.13;8.80;;;12.40;93.70;;;12.53;61.57;95679.72;5009528;28;21193;-55
2022/11/01 02:35:52;;;;;;;16.53;8.03;;;12.40;93.80;;;12.50;61.64;95686.09;5010908;28;20480;-56
2022/11/01 02:38:22;;;;;;;15.67;8.90;;;12.30;93.90;;;12.49;61.55;95688.88;5010374;28;20483;-52
2022/11/01 02:40:58;;;;;;;23.10;8.97;;;12.30;93.80;;;12.46;62.24;95692.59;5014348;28;20485;-54
2022/11/01 02:43:29;;;;;;;18.43;8.80;;;12.30;94.00;;;12.45;61.58;95698.00;5007318;28;20473;-55
2022/11/01 02:45:56;;;;;;;17.37;9.60;;;12.20;93.80;;;12.42;62.03;95696.44;5015827;28;20519;-56
2022/11/01 02:48:25;;;;;;;13.23;9.73;;;12.20;94.10;;;12.37;61.41;95696.03;5011087;28;20535;-54
2022/11/01 02:50:55;;;;;;;20.13;10.90;;;12.20;93.80;;;12.37;61.67;95707.41;5010660;28;20480;-55
2022/11/01 02:53:22;;;;;;;15.27;8.90;;;12.20;93.90;;;12.31;61.43;95707.09;5005605;28;20609;-57
2022/11/01 02:55:52;;;;;;;20.20;8.77;;;12.10;93.70;;;12.27;61.74;95700.38;5014097;28;20454;-55
2022/11/01 02:58:21;;;;;;;17.30;8.70;;;12.10;93.90;;;12.24;61.71;95705.94;5011934;28;20907;-54
2022/11/01 03:00:49;;;;;;;13.53;8.00;;;12.00;93.90;;;12.22;61.64;95708.69;5008519;28;20563;-56
2022/11/01 03:03:17;;;;;;;9.23;8.00;;;12.00;94.00;;;12.20;61.92;95703.53;5007915;28;20485;-56
2022/11/01 03:05:58;;;;;;;12.73;7.90;;;12.00;94.20;;;12.18;62.14;95702.84;5009925;28;21515;-56
2022/11/01 03:08:28;;;;;;;21.27;8.50;;;12.00;94.30;;;12.17;62.28;95710.88;5012241;28;20789;-54
2022/11/01 03:11:04;;;;;;;16.03;8.13;;;12.00;94.30;;;12.16;62.07;95710.06;5006594;28;20477;-53
2022/11/01 03:13:43;;;;;;;23.97;9.33;;;12.00;94.40;;;12.14;62.70;95704.06;5006936;28;20568;-55
2022/11/01 03:16:16;;;;;;;16.30;8.63;;;12.00;94.60;;;12.12;62.14;95708.63;5008803;28;20477;-54
2022/11/01 03:18:53;;;;;;;27.50;8.63;;;11.90;94.40;;;12.10;61.66;95710.56;5010933;28;20603;-55
2022/11/01 03:21:24;;;;;;;11.43;7.73;;;11.90;94.20;;;12.09;62.14;95710.72;5006479;28;20559;-55
2022/11/01 03:23:53;;;;;;;16.10;8.20;;;11.90;94.50;;;12.06;62.35;95711.78;5006014;28;20493;-55
2022/11/01 03:26:25;;;;;;;12.00;8.40;;;11.90;94.70;;;12.05;62.36;95712.75;5012670;28;20496;-56
2022/11/01 03:28:55;;;;;;;14.83;8.03;;;11.90;94.60;;;12.04;62.34;95711.09;5011834;28;20468;-55
2022/11/01 03:31:25;;;;;;;16.90;8.30;;;11.90;94.60;;;12.04;62.25;95708.47;5006266;28;20505;-56
2022/11/01 03:33:57;;;;;;;13.67;7.67;;;11.90;94.70;;;12.03;62.17;95712.03;5012582;28;20795;-54
2022/11/01 03:36:30;;;;;;;14.83;8.70;;;11.90;94.60;;;12.00;62.31;95715.75;5007521;28;20469;-54
2022/11/01 03:39:00;;;;;;;13.73;8.63;;;11.80;94.60;;;11.99;62.31;95715.88;5008480;28;20480;-54
2022/11/01 03:41:27;;;;;;;20.67;8.23;;;11.80;94.60;;;11.97;62.64;95715.19;5007073;28;20524;-55
2022/11/01 03:43:54;;;;;;;15.43;9.17;;;11.80;94.80;;;11.94;62.51;95713.63;5008356;28;21010;-55
2022/11/01 03:46:21;;;;;;;19.87;9.10;;;11.80;94.80;;;11.92;62.42;95710.31;5006818;28;20540;-56
2022/11/01 03:48:49;;;;;;;18.80;9.67;;;11.80;94.90;;;11.92;62.43;95719.97;5008059;28;20466;-56
2022/11/01 03:51:16;;;;;;;16.27;8.70;;;11.70;95.00;;;11.89;62.66;95707.88;5007488;28;20539;-54
2022/11/01 03:53:44;;;;;;;11.90;8.07;;;11.70;95.00;;;11.87;62.94;95715.09;5010283;28;20523;-55
2022/11/01 03:56:12;;;;;;;15.43;8.70;;;11.70;95.30;;;11.86;63.18;95712.59;5011509;28;21000;-56
2022/11/01 03:58:43;;;;;;;11.43;9.20;;;11.70;95.30;;;11.83;62.81;95713.66;5010577;28;20477;-56
2022/11/01 04:01:12;;;;;;;14.90;8.63;;;11.70;95.20;;;11.82;63.17;95718.09;5009687;28;20476;-55
2022/11/01 04:03:39;;;;;;;15.80;8.13;;;11.60;95.30;;;11.79;62.87;95712.25;5007120;28;20482;-54
2022/11/01 04:06:07;;;;;;;11.63;8.10;;;11.60;95.20;;;11.77;63.38;95715.03;5008950;28;20989;-55
2022/11/01 04:08:35;;;;;;;15.93;7.70;;;11.60;95.40;;;11.75;63.04;95716.94;5012209;28;21001;-54
2022/11/01 04:11:04;;;;;;;24.13;9.77;;;11.60;95.30;;;11.73;63.11;95716.22;5013434;28;20917;-54
2022/11/01 04:13:31;;;;;;;14.17;8.90;;;11.60;95.30;;;11.71;62.93;95714.66;5006929;28;20480;-54
2022/11/01 04:21:28;;;;;;;24.97;9.77;;;11.50;95.20;;;11.65;63.10;95705.50;5008874;28;20539;-55
2022/11/01 04:23:55;;;;;;;25.60;9.60;;;11.50;95.20;;;11.64;63.22;95709.91;5008638;28;20855;-59
2022/11/01 04:26:24;;;;;;;13.60;8.80;;;11.50;95.50;;;11.63;63.47;95707.41;5012515;28;21054;-55
2022/11/01 04:28:56;;;;;;;17.30;9.43;;;11.50;95.60;;;11.60;63.66;95711.13;5006127;28;20469;-56
2022/11/01 04:31:25;;;;;;;14.90;8.20;;;11.40;95.70;;;11.59;63.57;95706.00;5001049;28;20449;-56
2022/11/01 04:33:52;;;;;;;15.23;9.00;;;11.40;95.60;;;11.59;63.53;95711.25;5001623;28;20480;-56
2022/11/01 04:36:20;;;;;;;22.27;9.70;;;11.40;95.80;;;11.56;63.43;95714.97;5006014;28;20462;-57
2022/11/01 04:38:50;;;;;;;26.37;10.57;;;11.40;95.70;;;11.57;63.76;95715.81;5001315;28;20565;-54
2022/11/01 04:41:18;;;;;;;21.07;8.80;;;11.40;95.80;;;11.53;63.72;95712.59;5008465;28;20590;-55
2022/11/01 04:43:47;;;;;;;27.77;9.57;;;11.40;96.10;;;11.53;63.52;95717.03;5002078;28;20472;-54
2022/11/01 04:46:15;;;;;;;20.90;9.03;;;11.40;95.80;;;11.51;63.50;95718.94;5000115;28;20519;-55
2022/11/01 04:48:42;;;;;;;21.47;8.73;;;11.30;95.70;;;11.51;63.62;95714.53;5012965;28;20480;-55
2022/11/01 04:51:10;;;;;;;20.03;9.90;;;11.30;95.90;;;11.48;63.89;95715.59;5014894;28;20472;-56
2022/11/01 04:53:37;;;;;;;19.20;12.40;;;11.30;96.00;;;11.47;63.42;95724.44;5015995;28;20547;-54
2022/11/01 04:56:07;;;;;;;17.70;10.87;;;11.30;95.80;;;11.43;63.66;95717.78;5014088;28;20476;-55
2022/11/01 04:58:36;;;;;;;36.10;10.57;;;11.30;96.00;;;11.43;63.63;95722.19;5010984;28;20478;-55
2022/11/01 05:01:08;;;;;;;17.50;10.53;;;11.30;96.00;;;11.41;63.48;95719.69;5017378;28;20488;-55
2022/11/01 05:03:35;;;;;;;23.93;9.83;;;11.30;95.80;;;11.42;63.73;95721.34;5010611;28;20473;-54
2022/11/01 05:06:02;;;;;;;19.73;11.33;;;11.30;95.90;;;11.41;63.66;95724.94;5020101;28;21165;-55
2022/11/01 05:08:30;;;;;;;16.23;11.00;;;11.30;95.90;;;11.42;63.47;95728.44;5019483;28;21052;-54
2022/11/01 05:10:57;;;;;;;28.43;11.67;;;11.30;95.90;;;11.42;63.58;95737.16;5017756;28;20472;-54
2022/11/01 05:13:24;;;;;;;27.17;10.67;;;11.30;96.00;;;11.42;63.85;95733.72;5020465;28;20480;-55
2022/11/01 05:15:52;;;;;;;37.17;11.80;;;11.30;96.10;;;11.41;63.83;95743.38;5017024;28;21016;-56
2022/11/01 05:18:20;;;;;;;21.47;11.27;;;11.20;96.20;;;11.40;63.70;95740.88;5020207;28;20480;-57
2022/11/01 05:20:47;;;;;;;31.77;9.90;;;11.20;96.00;;;11.41;63.78;95745.19;5019217;28;20507;-55
2022/11/01 05:23:15;;;;;;;26.73;11.03;;;11.20;96.10;;;11.40;63.79;95749.63;5019047;28;20480;-54
2022/11/01 05:25:42;;;;;;;28.23;10.93;;;11.20;96.20;;;11.41;63.86;95740.75;5018413;28;20461;-56
2022/11/01 05:28:12;;;;;;;25.17;9.90;;;11.30;96.20;;;11.44;63.54;95745.78;5018180;28;20478;-56
2022/11/01 05:30:40;;;;;;;19.13;9.57;;;11.20;96.10;;;11.48;63.89;95751.66;5013665;28;20453;-54
2022/11/01 05:33:07;;;;;;;28.00;11.57;;;11.30;96.40;;;11.52;63.73;95755.69;5018203;28;20496;-54
2022/11/01 05:35:36;;;;;;;31.67;11.40;;;11.40;96.30;;;11.57;64.19;95750.06;5018863;28;20499;-55
2022/11/01 05:38:04;;;;;;;26.17;13.03;;;11.40;96.30;;;11.66;63.39;95757.22;5011240;28;20492;-55
2022/11/01 05:40:31;;;;;;;25.80;11.53;;;11.50;96.10;;;11.74;63.30;95761.84;5018157;28;20866;-55
2022/11/01 05:42:58;;;;;;;33.20;12.00;;;11.50;96.10;;;11.83;63.16;95756.69;5018923;28;20477;-55
2022/11/01 05:45:26;;;;;;;33.00;10.90;;;11.60;95.90;;;11.95;63.42;95759.31;5019123;28;20449;-56
2022/11/01 05:47:53;;;;;;;34.43;11.13;;;11.70;96.00;;;12.18;62.87;95766.16;5017309;28;20470;-56
2022/11/01 05:50:20;;;;;;;25.53;11.00;;;11.90;95.80;;;12.50;62.16;95753.84;5017046;28;20992;-56
2022/11/01 05:52:49;;;;;;;21.20;10.83;;;12.20;95.50;;;12.81;61.72;95762.66;5019661;28;20942;-54
2022/11/01 05:55:17;;;;;;;40.03;11.17;;;12.50;95.30;;;13.18;61.53;95767.38;5014341;28;20453;-55
2022/11/01 05:57:44;;;;;;;31.93;11.80;;;12.80;95.20;;;13.58;60.45;95771.81;5015234;28;20470;-55
2022/11/01 06:00:13;;;;;;;32.80;11.90;;;13.10;94.40;;;13.97;59.45;95773.69;5017812;28;20856;-55
2022/11/01 06:02:40;;;;;;;21.37;11.70;;;13.50;93.80;;;14.33;58.59;95766.88;5015141;28;20549;-56
2022/11/01 06:05:08;;;;;;;25.47;12.70;;;13.90;93.40;;;14.73;58.21;95777.44;5019142;28;20461;-54
2022/11/01 06:07:36;;;;;;;27.97;11.00;;;14.20;92.80;;;15.17;57.13;95775.88;5017244;28;20550;-55
2022/11/01 06:10:06;;;;;;;19.70;11.10;;;14.70;92.20;;;15.58;56.38;95776.41;5018965;28;20446;-56
2022/11/01 06:12:33;;;;;;;25.93;12.30;;;15.00;91.40;;;15.95;55.46;95782.59;5013741;28;20461;-54
2022/11/01 06:15:01;;;;;;;32.70;12.20;;;15.40;90.60;;;16.35;54.74;95775.19;5014682;28;20448;-55
2022/11/01 06:17:28;;;;;;;33.27;12.70;;;15.80;90.00;;;16.77;53.94;95779.81;5013889;28;20481;-54
2022/11/01 06:19:55;;;;;;;26.90;12.50;;;16.20;88.30;;;17.21;52.75;95785.06;5020196;28;20512;-56
2022/11/01 06:22:22;;;;;;;21.20;13.30;;;16.60;86.20;;;17.63;51.94;95789.59;5017140;28;20488;-56
2022/11/01 06:24:50;;;;;;;22.20;12.90;;;17.00;84.50;;;18.04;51.51;95787.06;5017647;28;20512;-56
2022/11/01 06:27:18;;;;;;;20.67;12.20;;;17.40;83.40;;;18.52;50.81;95789.94;5018347;28;20465;-55
2022/11/01 06:29:46;;;;;;;26.57;10.70;;;17.90;81.60;;;19.00;50.45;95784.78;5017324;28;20456;-56
2022/11/01 06:32:13;;;;;;;38.50;11.27;;;18.40;80.10;;;19.46;49.40;95782.31;5017396;28;20454;-55
2022/11/01 06:34:40;;;;;;;26.50;11.90;;;18.90;78.60;;;19.88;48.84;95791.81;5018688;28;20825;-56
2022/11/01 06:37:07;;;;;;;25.47;11.70;;;19.30;76.10;;;20.31;47.51;95783.41;5018136;28;20966;-55
2022/11/01 06:39:35;;;;;;;36.33;12.90;;;19.80;74.20;;;20.78;47.07;95781.53;5016068;28;20931;-58
2022/11/01 06:42:02;;;;;;;33.33;12.60;;;20.20;72.80;;;21.26;45.97;95783.91;5018581;28;20846;-56
2022/11/01 06:44:31;;;;;;;25.83;12.80;;;20.70;70.90;;;21.71;45.96;95787.44;5019404;28;20952;-56
2022/11/01 06:46:58;;;;;;;34.80;11.90;;;21.10;69.80;;;22.19;45.13;95792.31;5018923;28;20477;-55
2022/11/01 06:49:26;;;;;;;31.67;13.10;;;21.50;68.60;;;22.64;44.23;95789.50;5018375;28;20476;-57
2022/11/01 06:51:53;;;;;;;28.53;11.50;;;22.00;67.10;;;23.01;43.26;95784.84;5019141;28;20460;-56
2022/11/01 06:54:20;;;;;;;24.40;10.70;;;22.40;65.20;;;23.39;42.21;95788.03;5015551;28;20470;-56
2022/11/01 06:56:48;;;;;;;29.93;11.80;;;22.80;62.90;;;23.82;41.74;95787.00;5015596;28;20454;-59
2022/11/01 06:59:15;;;;;;;25.30;12.50;;;23.20;62.00;;;24.26;41.23;95790.25;5017964;28;20480;-55
2022/11/01 07:01:44;;;;;;;28.13;12.40;;;23.60;60.80;;;24.74;41.21;95781.28;5016800;28;20556;-54
2022/11/01 07:04:11;;;;;;;26.30;10.83;;;24.10;59.60;;;25.20;40.00;95788.50;5016350;28;20473;-54
2022/11/01 07:06:39;;;;;;;26.30;11.70;;;24.60;58.30;;;25.64;39.19;95778.94;5017763;28;20444;-54
2022/11/01 07:09:06;;;;;;;25.80;10.87;;;25.10;57.20;;;26.03;38.23;95789.81;5016530;28;20480;-55
2022/11/01 07:11:33;;;;;;;25.50;10.40;;;25.50;55.70;;;26.41;37.90;95794.38;5016624;28;20456;-56
2022/11/01 07:14:01;;;;;;;22.13;11.10;;;26.00;54.70;;;26.75;37.27;95784.22;5016018;28;20476;-55
2022/11/01 07:16:28;;;;;;;41.33;11.93;;;26.40;53.90;;;27.12;36.71;95785.16;5013093;28;20444;-55
2022/11/01 07:18:57;;;;;;;31.27;13.33;;;26.90;53.00;;;27.46;36.25;95787.56;5017358;28;20587;-57
2022/11/01 07:21:24;;;;;;;20.70;10.43;;;27.30;51.90;;;27.76;35.29;95784.13;5018078;28;20500;-55
2022/11/01 07:23:52;;;;;;;24.73;12.17;;;27.70;50.90;;;28.05;34.75;95785.25;5014855;28;20495;-55
2022/11/01 07:26:20;;;;;;;21.40;9.50;;;28.10;49.70;;;28.29;34.17;95782.66;5016546;28;20490;-55
2022/11/01 07:28:47;;;;;;;21.10;11.07;;;28.40;49.00;;;28.47;33.41;95784.50;5017536;28;20469;-56
2022/11/01 07:31:14;;;;;;;15.23;9.87;;;28.60;48.10;;;28.59;33.82;95788.09;5012085;28;20489;-55
2022/11/01 07:33:42;;;;;;;16.43;10.40;;;28.70;47.70;;;28.72;33.85;95784.38;5017018;28;20530;-54
2022/11/01 07:36:10;;;;;;;23.00;9.70;;;28.80;47.30;;;28.87;33.33;95784.75;5015239;28;20551;-55
2022/11/01 07:38:38;;;;;;;19.13;9.90;;;28.80;47.10;;;29.03;33.20;95782.41;5017515;28;20922;-56
2022/11/01 07:41:05;;;;;;;26.00;10.70;;;28.80;46.70;;;29.12;32.80;95789.16;5015460;28;20460;-56
2022/11/01 07:43:34;;;;;;;25.67;9.40;;;28.90;46.10;;;29.21;32.84;95785.06;5015663;28;20977;-57
2022/11/01 07:46:04;;;;;;;27.93;9.47;;;28.90;46.00;;;29.30;31.80;95782.84;5017333;28;20453;-54
2022/11/01 07:48:31;;;;;;;17.60;9.40;;;28.90;45.60;;;29.37;32.45;95782.72;5012393;28;20556;-56
2022/11/01 07:50:59;;;;;;;21.33;9.77;;;29.00;45.70;;;29.46;32.22;95781.28;5016398;28;20507;-56
2022/11/01 07:53:27;;;;;;;21.30;10.03;;;29.00;45.10;;;29.56;31.29;95781.53;5018196;28;20481;-54
2022/11/01 07:55:54;;;;;;;24.60;9.63;;;29.10;45.00;;;29.70;31.49;95779.38;5018554;28;20456;-56
2022/11/01 07:58:22;;;;;;;23.47;11.10;;;29.20;44.60;;;29.88;30.70;95777.59;5015074;28;20471;-63
2022/11/01 08:00:49;;;;;;;23.47;11.10;;;29.30;44.40;;;30.03;30.74;95775.22;5014695;28;20457;-55
2022/11/01 08:03:18;;;;;;;37.33;13.30;;;29.50;44.00;;;30.17;30.13;95771.13;5015683;28;20648;-56
2022/11/01 08:05:45;;;;;;;19.40;10.30;;;29.60;43.70;;;30.30;30.54;95775.44;5011800;28;20462;-57
2022/11/01 08:08:13;;;;;;;22.70;9.93;;;29.70;43.50;;;30.42;29.79;95780.06;5017063;28;20473;-56
2022/11/01 08:10:42;;;;;;;20.47;10.33;;;29.80;43.10;;;30.49;29.37;95778.00;5017118;28;20456;-56
2022/11/01 08:13:14;;;;;;;24.97;10.17;;;29.90;42.50;;;30.44;29.84;95775.19;5015771;28;20748;-55
2022/11/01 08:15:41;;;;;;;27.03;9.70;;;29.90;42.30;;;30.34;29.41;95776.63;5015383;28;20448;-55
2022/11/01 08:18:09;;;;;;;14.67;9.73;;;29.80;42.50;;;30.35;29.52;95772.84;5010738;28;20487;-55
2022/11/01 08:20:36;;;;;;;17.07;10.67;;;29.80;42.50;;;30.43;29.45;95768.94;5016978;28;20452;-55
2022/11/01 08:23:03;;;;;;;38.53;11.33;;;29.80;42.50;;;30.53;30.06;95765.59;5016859;28;20524;-55
2022/11/01 08:25:31;;;;;;;27.47;11.17;;;29.90;42.20;;;30.61;29.40;95764.38;5007807;28;20459;-55
2022/11/01 08:28:02;;;;;;;23.87;11.73;;;30.00;42.10;;;30.70;29.88;95757.47;5015146;28;20476;-56
2022/11/01 08:30:30;;;;;;;21.40;11.10;;;30.10;41.90;;;30.76;29.52;95759.19;5016004;28;20444;-58
2022/11/01 08:33:00;;;;;;;38.70;11.17;;;30.10;41.40;;;30.72;29.25;95761.59;5015569;28;20968;-55
2022/11/01 08:35:27;;;;;;;21.10;11.53;;;30.10;41.40;;;30.73;29.32;95751.53;5015441;28;21012;-56
2022/11/01 08:37:55;;;;;;;29.77;12.10;;;30.00;41.30;;;30.79;29.55;95744.31;5016425;28;20913;-54
2022/11/01 08:40:22;;;;;;;20.47;10.90;;;30.10;41.40;;;30.92;29.31;95755.69;5016823;28;20452;-56
2022/11/01 08:42:49;;;;;;;21.17;10.83;;;30.20;41.40;;;31.11;28.60;95758.19;5013902;28;20503;-57
2022/11/01 08:45:18;;;;;;;29.13;11.37;;;30.40;41.30;;;31.36;28.91;95741.41;5014219;28;20454;-56
2022/11/01 08:47:45;;;;;;;15.83;10.40;;;30.60;41.10;;;31.65;28.47;95746.72;5016860;28;20461;-53
2022/11/01 08:50:14;;;;;;;16.20;11.30;;;30.90;40.80;;;31.92;28.34;95749.53;5014325;28;20942;-54
2022/11/01 08:52:42;;;;;;;26.23;11.77;;;31.20;40.60;;;32.11;28.28;95750.03;5010586;28;20912;-57
2022/11/01 08:55:10;;;;;;;25.10;11.30;;;31.30;40.20;;;32.28;27.88;95743.69;5016734;28;20213;-56
2022/11/01 08:57:37;;;;;;;21.67;11.30;;;31.50;39.80;;;32.43;27.84;95748.50;5017345;28;20226;-57
2022/11/01 09:00:06;;;;;;;21.80;13.23;;;31.70;39.60;;;32.51;27.51;95748.84;5016811;28;20251;-57
2022/11/01 09:02:34;;;;;;;29.37;13.40;;;31.70;39.20;;;32.62;27.75;95733.41;5015970;28;20256;-56
2022/11/01 09:05:04;;;;;;;28.37;11.40;;;31.90;39.10;;;32.78;27.08;95734.41;5015125;28;20213;-55
2022/11/01 09:07:31;;;;;;;25.97;12.50;;;32.00;39.00;;;32.85;27.20;95732.28;5014732;28;20686;-54
2022/11/01 09:09:59;;;;;;;19.73;11.47;;;32.20;38.80;;;32.92;27.12;95733.97;5016487;28;20705;-55
2022/11/01 09:12:26;;;;;;;29.90;12.27;;;32.20;38.50;;;32.96;26.83;95733.19;5017144;28;20244;-56
2022/11/01 09:14:53;;;;;;;18.20;12.13;;;32.20;38.20;;;33.03;26.64;95730.22;5014688;28;20209;-54
2022/11/01 09:17:20;;;;;;;26.67;11.20;;;32.30;37.90;;;33.10;26.65;95725.38;5011293;28;20696;-56
2022/11/01 09:19:49;;;;;;;23.97;11.13;;;32.40;38.00;;;33.20;26.24;95727.38;5009861;28;20205;-55
2022/11/01 09:22:17;;;;;;;19.13;10.13;;;32.40;37.80;;;33.29;26.60;95728.53;5013265;28;20226;-56
2022/11/01 09:24:44;;;;;;;17.00;9.50;;;32.50;37.90;;;33.39;26.41;95727.78;5015951;28;20213;-55
2022/11/01 09:27:11;;;;;;;13.27;9.37;;;32.60;37.70;;;33.50;26.65;95718.56;5016221;28;20205;-55
2022/11/01 09:29:39;;;;;;;22.52;10.25;;;32.70;37.50;;;33.63;26.30;95719.19;5015758;28;20271;-55
2022/11/01 09:32:06;;;;;;;25.13;9.85;;;32.80;37.20;;;33.66;25.78;95713.19;5014694;28;20217;-55
2022/11/01 09:34:34;;;;;;;21.48;9.25;;;32.90;37.20;;;33.64;25.84;95715.38;5017076;28;20749;-55
2022/11/01 09:37:03;;;;;;;18.83;9.30;;;33.00;37.00;;;33.71;25.75;95710.47;5017561;28;20592;-53
2022/11/01 09:39:31;;;;;;;22.30;9.80;;;33.00;37.00;;;33.82;25.78;95712.22;5017715;28;20222;-55
2022/11/01 09:42:00;;;;;;;19.95;9.25;;;33.10;36.90;;;33.90;26.23;95706.22;5020011;28;20230;-55
2022/11/01 09:44:29;;;;;;;21.55;10.75;;;33.20;36.70;;;33.94;25.43;95699.16;5020458;28;20229;-54
2022/11/01 09:46:58;;;;;;;22.85;10.35;;;33.20;36.60;;;34.02;25.47;95706.00;5016025;28;20203;-54
2022/11/01 09:49:28;;;;;;;21.48;10.38;;;33.30;36.40;;;34.09;26.10;95701.09;5014597;28;20451;-58
2022/11/01 09:51:55;;;;;;;40.50;11.32;;;33.30;36.60;;;34.18;25.97;95692.41;5019040;28;20205;-56
2022/11/01 09:54:24;;;;;;;25.77;11.60;;;33.40;36.50;;;34.25;25.96;95692.97;5017181;28;20316;-55
2022/11/01 09:57:03;;;;;;;19.10;10.20;;;33.50;36.80;;;34.30;25.65;95685.63;5019533;28;20255;-57
2022/11/01 09:59:35;;;;;;;19.00;9.80;;;33.60;36.60;;;34.35;25.96;95686.69;5015869;28;20245;-54
2022/11/01 10:02:44;;;;;;;27.55;9.55;;;33.70;36.70;;;34.38;25.58;95686.16;5016099;28;20241;-57
2022/11/01 10:05:30;;;;;;;18.63;9.25;;;33.70;36.50;;;34.45;25.35;95675.78;5015934;28;20268;-54
2022/11/01 10:08:03;;;;;;;16.63;11.02;;;33.80;36.30;;;34.47;25.70;95679.91;5018671;28;20791;-55
2022/11/01 10:10:38;;;;;;;25.73;10.45;;;33.80;35.80;;;34.46;26.05;95671.97;5014180;28;20264;-55
2022/11/01 10:13:16;;;;;;;21.38;11.05;;;33.80;35.80;;;34.42;25.44;95666.22;5017154;28;20307;-55
2022/11/01 10:15:52;;;;;;;22.20;9.88;;;33.80;35.80;;;34.42;24.89;95668.13;5015715;28;20198;-54
2022/11/01 10:18:27;;;;;;;20.85;10.55;;;33.80;35.80;;;34.42;25.72;95659.94;5020065;28;20998;-56
2022/11/01 10:20:57;;;;;;;27.58;10.18;;;33.80;35.70;;;34.37;25.75;95663.47;5019761;28;20205;-55
2022/11/01 10:23:34;;;;;;;23.30;10.98;;;33.80;35.80;;;34.36;26.03;95661.84;5018402;28;20234;-55
2022/11/01 10:26:03;;;;;;;16.65;10.85;;;33.70;35.80;;;34.28;26.02;95663.19;5017279;28;20202;-56